X

Important NEWS



New Hub Active

Miami is our new hub! Old members can request transfer via hr@dlxairways.net

Thank you very much and have nice flight.


Deluxe Airways.

X

Tours



Hello again, we created one nice test tour for all pilots to attend. also this is ment to be testing of our tour system

Available Tours

If you find some issues please inform us.

Thank you very much and have nice flight.


Deluxe Airways.

 METAR AND TAF INFORMATION
ArrayMETAR FOR LQTZ
48173472 6 LQTZ 221030Z 28004KT 1500 -RA BR FEW004 BKN025 OVC035 06/05 Q1021 LQTZ 2019-02-22T10:30:00Z 44.47 18.73 6.0 5.0 280 4 0.93 30.147638 -RA BR LIFR METAR 306.0 LQTZ 221000Z 30004KT 1200 R09/0900N -RA BR FEW005 BKN030 OVC040 05/04 Q1021 LQTZ 2019-02-22T10:00:00Z 44.47 18.73 5.0 4.0 300 4 0.75 30.147638 -RA BR LIFR METAR 306.0 LQTZ 220930Z 30004KT 1200 R09/0900N -RA BR FEW004 BKN030 OVC040 05/03 Q1021 LQTZ 2019-02-22T09:30:00Z 44.47 18.73 5.0 3.0 300 4 0.75 30.147638 -RA BR LIFR METAR 306.0 LQTZ 220900Z 30005KT 1500 -RA BR FEW020 BKN030 OVC040 04/03 Q1021 LQTZ 2019-02-22T09:00:00Z 44.47 18.73 4.0 3.0 300 5 0.93 30.147638 -RA BR LIFR METAR 306.0

 AIRPORT MAP

 RUNWAY INFORMATION
Runway 09 Runway length 8152 ft Runway width 148 ft
Runway elevation 763 ft Runway displaced threshold 0 ft Runway heading 96
Runway 27 Runway length 8152 ft Runway width 148 ft
Runway elevation 776 ft Runway displaced threshold 0 ft Runway heading 276

 AIRPORT FREQUENCIES
Type APP Name APP/DEP Frequency 125.8 MHZ
Type ATIS Name ATIS Frequency 140.325 MHZ
Type GCCD Name GND/CLNC D Frequency 143.425 MHZ
Type OPS Name AFLD OPS Frequency 142.525 MHZ
Type PMSV Name PMSV METRO Frequency 25.892 MHZ
Type TWR Name TWR Frequency 130.85 MHZ

 AIRPORT NEAR NAVIGATION AIDS
Type NDB Name Tuzla Frequency 445 KHZ
Type TACAN Name Tuzla Frequency 109700 KHZ



Powered by Virtual Airlines Manager [v2.6.2]

Template code change by DeluxeAir